sensor_id;sensor_type;location;lat;lon;timestamp;pressure;altitude;pressure_sealevel;temperature;humidity
42003;BME280;27693;50.506;30.832;2022-12-13T02:15:18;98944.23;;;-0.86;99.72
42003;BME280;27693;50.506;30.832;2022-12-13T02:17:55;98941.70;;;-0.89;100.00
42003;BME280;27693;50.506;30.832;2022-12-13T02:24:46;98934.17;;;-0.31;100.00
42003;BME280;27693;50.506;30.832;2022-12-13T02:26:18;98939.13;;;-0.20;100.00
42003;BME280;27693;50.506;30.832;2022-12-13T02:31:31;98936.89;;;0.14;100.00
42003;BME280;27693;50.506;30.832;2022-12-13T02:35:16;98936.61;;;0.33;99.56
42003;BME280;27693;50.506;30.832;2022-12-13T02:37:40;98942.48;;;0.38;98.53
42003;BME280;27693;50.506;30.832;2022-12-13T02:41:28;98937.76;;;0.65;99.84
42003;BME280;27693;50.506;30.832;2022-12-13T02:42:34;98944.45;;;0.72;99.20
42003;BME280;27693;50.506;30.832;2022-12-13T02:43:41;98948.59;;;0.79;98.30
42003;BME280;27693;50.506;30.832;2022-12-13T02:44:50;98943.41;;;0.83;97.96
42003;BME280;27693;50.506;30.832;2022-12-13T02:45:53;98942.53;;;0.84;97.23
42003;BME280;27693;50.506;30.832;2022-12-13T02:47:02;98949.23;;;0.91;97.08
42003;BME280;27693;50.506;30.832;2022-12-13T02:48:07;98950.88;;;0.95;96.77
42003;BME280;27693;50.506;30.832;2022-12-13T02:49:12;98959.48;;;0.91;95.83
42003;BME280;27693;50.506;30.832;2022-12-13T02:50:15;98953.44;;;0.95;95.72
42003;BME280;27693;50.506;30.832;2022-12-13T02:51:18;98951.00;;;0.89;94.46
42003;BME280;27693;50.506;30.832;2022-12-13T02:52:24;98953.69;;;0.81;93.21
42003;BME280;27693;50.506;30.832;2022-12-13T02:53:28;98954.55;;;0.82;93.02
42003;BME280;27693;50.506;30.832;2022-12-13T02:54:32;98943.70;;;0.66;92.06
42003;BME280;27693;50.506;30.832;2022-12-13T02:55:39;98947.88;;;0.71;92.45
42003;BME280;27693;50.506;30.832;2022-12-13T02:56:51;98952.18;;;0.69;92.25
42003;BME280;27693;50.506;30.832;2022-12-13T02:57:45;98948.98;;;0.58;91.78
42003;BME280;27693;50.506;30.832;2022-12-13T02:58:50;98949.09;;;0.52;91.41
42003;BME280;27693;50.506;30.832;2022-12-13T02:59:53;98952.33;;;0.61;91.69
42003;BME280;27693;50.506;30.832;2022-12-13T03:01:11;98952.47;;;0.54;91.05
42003;BME280;27693;50.506;30.832;2022-12-13T03:03:58;98959.36;;;0.50;91.31
42003;BME280;27693;50.506;30.832;2022-12-13T03:07:46;98960.30;;;0.44;91.57
42003;BME280;27693;50.506;30.832;2022-12-13T03:10:14;98967.11;;;0.45;91.87
42003;BME280;27693;50.506;30.832;2022-12-13T03:11:17;98956.91;;;0.42;92.11
42003;BME280;27693;50.506;30.832;2022-12-13T03:12:34;98965.41;;;0.44;92.32
42003;BME280;27693;50.506;30.832;2022-12-13T03:13:55;98965.37;;;0.47;92.49
42003;BME280;27693;50.506;30.832;2022-12-13T03:17:14;98964.48;;;0.50;92.29
42003;BME280;27693;50.506;30.832;2022-12-13T03:18:20;98972.08;;;0.55;92.57
42003;BME280;27693;50.506;30.832;2022-12-13T03:19:23;98968.52;;;0.63;92.70
42003;BME280;27693;50.506;30.832;2022-12-13T03:20:27;98968.52;;;0.62;92.38
42003;BME280;27693;50.506;30.832;2022-12-13T03:21:42;98960.88;;;0.60;92.77
42003;BME280;27693;50.506;30.832;2022-12-13T03:22:43;98962.53;;;0.65;92.78
42003;BME280;27693;50.506;30.832;2022-12-13T03:23:45;98961.40;;;0.79;93.05
42003;BME280;27693;50.506;30.832;2022-12-13T03:24:47;98961.40;;;0.79;93.05
42003;BME280;27693;50.506;30.832;2022-12-13T03:25:56;98966.36;;;0.89;92.69
42003;BME280;27693;50.506;30.832;2022-12-13T03:26:59;98963.69;;;0.93;92.37
42003;BME280;27693;50.506;30.832;2022-12-13T03:28:01;98952.58;;;0.96;91.86
42003;BME280;27693;50.506;30.832;2022-12-13T03:29:04;98958.45;;;1.00;91.76
42003;BME280;27693;50.506;30.832;2022-12-13T03:30:07;98952.62;;;0.93;91.31
42003;BME280;27693;50.506;30.832;2022-12-13T03:31:09;98955.17;;;0.93;91.04
42003;BME280;27693;50.506;30.832;2022-12-13T03:32:12;98952.50;;;0.99;90.88
42003;BME280;27693;50.506;30.832;2022-12-13T03:33:13;98944.03;;;0.95;91.25
42003;BME280;27693;50.506;30.832;2022-12-13T03:34:15;98945.17;;;0.79;90.11
42003;BME280;27693;50.506;30.832;2022-12-13T03:35:19;98942.88;;;0.65;89.54
42003;BME280;27693;50.506;30.832;2022-12-13T03:36:23;98939.56;;;0.60;90.14
42003;BME280;27693;50.506;30.832;2022-12-13T03:37:25;98951.06;;;0.36;89.89
42003;BME280;27693;50.506;30.832;2022-12-13T03:38:28;98948.33;;;0.46;90.67
42003;BME280;27693;50.506;30.832;2022-12-13T03:39:32;98951.06;;;0.36;90.52
42003;BME280;27693;50.506;30.832;2022-12-13T03:40:34;98949.55;;;0.24;90.29
42003;BME280;27693;50.506;30.832;2022-12-13T03:41:36;98940.41;;;0.07;90.63
42003;BME280;27693;50.506;30.832;2022-12-13T03:42:39;98943.96;;;0.00;91.19
42003;BME280;27693;50.506;30.832;2022-12-13T03:43:41;98941.56;;;-0.11;91.11
42003;BME280;27693;50.506;30.832;2022-12-13T03:44:43;98943.99;;;-0.03;91.94
42003;BME280;27693;50.506;30.832;2022-12-13T03:45:45;98933.53;;;0.11;92.61
42003;BME280;27693;50.506;30.832;2022-12-13T03:46:47;98933.53;;;0.11;92.61
42003;BME280;27693;50.506;30.832;2022-12-13T03:47:49;98944.42;;;0.24;92.75
42003;BME280;27693;50.506;30.832;2022-12-13T03:48:50;98946.05;;;0.29;93.02
42003;BME280;27693;50.506;30.832;2022-12-13T03:49:52;98946.78;;;0.36;92.90
42003;BME280;27693;50.506;30.832;2022-12-13T03:50:56;98946.63;;;0.45;93.38
42003;BME280;27693;50.506;30.832;2022-12-13T03:51:58;98934.37;;;0.63;92.69
42003;BME280;27693;50.506;30.832;2022-12-13T03:53:02;98934.37;;;0.63;92.69
42003;BME280;27693;50.506;30.832;2022-12-13T03:54:04;98942.65;;;0.77;92.66
42003;BME280;27693;50.506;30.832;2022-12-13T03:55:06;98939.97;;;0.84;92.23
42003;BME280;27693;50.506;30.832;2022-12-13T03:56:09;98937.30;;;0.90;92.02
42003;BME280;27693;50.506;30.832;2022-12-13T03:57:11;98947.45;;;0.96;92.08
42003;BME280;27693;50.506;30.832;2022-12-13T03:58:13;98936.26;;;1.00;91.80
42003;BME280;27693;50.506;30.832;2022-12-13T03:59:18;98934.41;;;1.07;91.69
42003;BME280;27693;50.506;30.832;2022-12-13T04:00:21;98929.27;;;1.08;91.16
42003;BME280;27693;50.506;30.832;2022-12-13T04:01:23;98925.02;;;1.07;91.14
42003;BME280;27693;50.506;30.832;2022-12-13T04:02:26;98918.08;;;1.13;90.67
42003;BME280;27693;50.506;30.832;2022-12-13T04:03:31;98923.16;;;1.16;90.27
42003;BME280;27693;50.506;30.832;2022-12-13T04:04:34;98925.68;;;1.17;89.98
42003;BME280;27693;50.506;30.832;2022-12-13T04:05:36;98925.72;;;1.14;89.88
42003;BME280;27693;50.506;30.832;2022-12-13T04:06:38;98930.77;;;1.19;89.52
42003;BME280;27693;50.506;30.832;2022-12-13T04:07:40;98935.97;;;1.16;90.06
42003;BME280;27693;50.506;30.832;2022-12-13T04:08:44;98926.46;;;1.21;89.72
42003;BME280;27693;50.506;30.832;2022-12-13T04:09:46;98929.85;;;1.21;89.46
42003;BME280;27693;50.506;30.832;2022-12-13T04:10:48;98929.80;;;1.24;89.00
42003;BME280;27693;50.506;30.832;2022-12-13T04:11:50;98933.97;;;1.30;88.33
42003;BME280;27693;50.506;30.832;2022-12-13T04:12:53;98938.97;;;1.36;87.82
42003;BME280;27693;50.506;30.832;2022-12-13T04:13:57;98941.40;;;1.42;87.23
42003;BME280;27693;50.506;30.832;2022-12-13T04:14:58;98930.62;;;1.26;86.90
42003;BME280;27693;50.506;30.832;2022-12-13T04:16:01;98930.62;;;1.26;86.90
42003;BME280;27693;50.506;30.832;2022-12-13T04:17:04;98945.14;;;1.26;86.78
42003;BME280;27693;50.506;30.832;2022-12-13T04:18:06;98940.02;;;1.26;87.01
42003;BME280;27693;50.506;30.832;2022-12-13T04:19:08;98943.57;;;1.19;87.76
42003;BME280;27693;50.506;30.832;2022-12-13T04:20:10;98936.63;;;1.24;87.71
42003;BME280;27693;50.506;30.832;2022-12-13T04:21:12;98944.31;;;1.24;87.94
42003;BME280;27693;50.506;30.832;2022-12-13T04:22:14;98945.02;;;1.32;87.63
42003;BME280;27693;50.506;30.832;2022-12-13T04:23:18;98941.62;;;1.32;87.57
42003;BME280;27693;50.506;30.832;2022-12-13T04:25:32;98940.44;;;1.47;87.23
42003;BME280;27693;50.506;30.832;2022-12-13T04:26:34;98941.53;;;1.36;87.23
42003;BME280;27693;50.506;30.832;2022-12-13T04:27:35;98936.45;;;1.33;87.28
42003;BME280;27693;50.506;30.832;2022-12-13T04:28:37;98940.66;;;1.36;87.88
42003;BME280;27693;50.506;30.832;2022-12-13T04:29:39;98945.00;;;1.34;87.85
42003;BME280;27693;50.506;30.832;2022-12-13T04:30:41;98941.53;;;1.36;87.74
42003;BME280;27693;50.506;30.832;2022-12-13T04:31:43;98944.96;;;1.35;87.91
42003;BME280;27693;50.506;30.832;2022-12-13T04:32:45;98933.20;;;1.25;88.25
42003;BME280;27693;50.506;30.832;2022-12-13T04:33:47;98937.41;;;1.27;88.19
42003;BME280;27693;50.506;30.832;2022-12-13T04:34:49;98934.02;;;1.27;88.02
42003;BME280;27693;50.506;30.832;2022-12-13T04:35:51;98932.23;;;1.31;87.80
42003;BME280;27693;50.506;30.832;2022-12-13T04:36:53;98937.45;;;1.26;87.59
42003;BME280;27693;50.506;30.832;2022-12-13T04:37:55;98937.31;;;1.34;87.25
42003;BME280;27693;50.506;30.832;2022-12-13T04:38:58;98936.41;;;1.36;86.97
42003;BME280;27693;50.506;30.832;2022-12-13T04:40:02;98938.88;;;1.39;87.04
42003;BME280;27693;50.506;30.832;2022-12-13T04:41:12;98934.58;;;1.41;86.42
42003;BME280;27693;50.506;30.832;2022-12-13T04:42:13;98931.14;;;1.42;86.10
42003;BME280;27693;50.506;30.832;2022-12-13T04:43:15;98926.81;;;1.44;85.46
42003;BME280;27693;50.506;30.832;2022-12-13T04:44:18;98930.15;;;1.48;85.87
42003;BME280;27693;50.506;30.832;2022-12-13T04:45:22;98934.39;;;1.51;85.16
42003;BME280;27693;50.506;30.832;2022-12-13T04:46:24;98930.14;;;1.50;84.87
42003;BME280;27693;50.506;30.832;2022-12-13T04:47:26;98931.70;;;1.57;84.44
42003;BME280;27693;50.506;30.832;2022-12-13T04:48:28;98935.92;;;1.58;84.46
42003;BME280;27693;50.506;30.832;2022-12-13T04:49:32;98941.31;;;1.46;85.20
42003;BME280;27693;50.506;30.832;2022-12-13T04:50:34;98948.31;;;1.37;85.50
42003;BME280;27693;50.506;30.832;2022-12-13T04:51:36;98946.66;;;1.36;85.90
42003;BME280;27693;50.506;30.832;2022-12-13T04:52:38;98942.48;;;1.31;86.25
42003;BME280;27693;50.506;30.832;2022-12-13T04:53:40;98937.41;;;1.29;86.77
42003;BME280;27693;50.506;30.832;2022-12-13T04:54:56;98937.41;;;1.29;87.08
42003;BME280;27693;50.506;30.832;2022-12-13T04:56:01;98934.89;;;1.26;88.18
42003;BME280;27693;50.506;30.832;2022-12-13T04:57:09;98936.58;;;1.27;87.91
42003;BME280;27693;50.506;30.832;2022-12-13T04:58:11;98935.84;;;1.22;87.91
42003;BME280;27693;50.506;30.832;2022-12-13T04:59:13;98934.27;;;1.15;87.85
42003;BME280;27693;50.506;30.832;2022-12-13T05:00:15;98934.19;;;1.19;87.98
42003;BME280;27693;50.506;30.832;2022-12-13T05:01:17;98935.14;;;1.14;87.86
42003;BME280;27693;50.506;30.832;2022-12-13T05:02:19;98938.45;;;1.19;87.86
42003;BME280;27693;50.506;30.832;2022-12-13T05:03:23;98932.45;;;1.20;87.63
42003;BME280;27693;50.506;30.832;2022-12-13T05:04:25;98938.41;;;1.22;87.08
42003;BME280;27693;50.506;30.832;2022-12-13T05:05:29;98940.09;;;1.23;86.85
42003;BME280;27693;50.506;30.832;2022-12-13T05:06:31;98945.09;;;1.29;86.50
42003;BME280;27693;50.506;30.832;2022-12-13T05:07:33;98949.95;;;1.41;85.91
42003;BME280;27693;50.506;30.832;2022-12-13T05:08:35;98946.66;;;1.35;86.76
42003;BME280;27693;50.506;30.832;2022-12-13T05:09:38;98947.61;;;1.31;87.06
42003;BME280;27693;50.506;30.832;2022-12-13T05:10:40;98950.13;;;1.32;87.13
42003;BME280;27693;50.506;30.832;2022-12-13T05:11:41;98951.83;;;1.33;87.40
42003;BME280;27693;50.506;30.832;2022-12-13T05:12:45;98956.99;;;1.32;87.45
42003;BME280;27693;50.506;30.832;2022-12-13T05:13:47;98949.30;;;1.32;87.73
42003;BME280;27693;50.506;30.832;2022-12-13T05:14:51;98955.34;;;1.29;87.64
42003;BME280;27693;50.506;30.832;2022-12-13T05:15:58;98961.38;;;1.26;88.02
42003;BME280;27693;50.506;30.832;2022-12-13T05:17:01;98955.39;;;1.26;88.11
42003;BME280;27693;50.506;30.832;2022-12-13T05:18:05;98954.61;;;1.22;87.92
42003;BME280;27693;50.506;30.832;2022-12-13T05:19:09;98955.80;;;1.04;87.56
42003;BME280;27693;50.506;30.832;2022-12-13T05:20:11;98959.43;;;0.94;87.35
42003;BME280;27693;50.506;30.832;2022-12-13T05:21:13;98953.36;;;0.98;88.75
42003;BME280;27693;50.506;30.832;2022-12-13T05:22:15;98953.36;;;0.98;88.75
42003;BME280;27693;50.506;30.832;2022-12-13T05:23:22;98967.74;;;1.05;88.36
42003;BME280;27693;50.506;30.832;2022-12-13T05:24:24;98964.31;;;1.06;88.15
42003;BME280;27693;50.506;30.832;2022-12-13T05:25:26;98968.49;;;1.10;87.62
42003;BME280;27693;50.506;30.832;2022-12-13T05:26:28;98973.14;;;0.90;87.48
42003;BME280;27693;50.506;30.832;2022-12-13T05:27:31;98967.31;;;0.83;88.18
42003;BME280;27693;50.506;30.832;2022-12-13T05:28:33;98967.31;;;0.83;88.18
42003;BME280;27693;50.506;30.832;2022-12-13T05:29:36;98978.23;;;0.93;88.19
42003;BME280;27693;50.506;30.832;2022-12-13T05:30:40;98971.53;;;0.86;88.27
42003;BME280;27693;50.506;30.832;2022-12-13T05:31:42;98970.96;;;0.70;88.27
42003;BME280;27693;50.506;30.832;2022-12-13T05:32:45;98979.04;;;0.45;88.57
42003;BME280;27693;50.506;30.832;2022-12-13T05:33:47;98978.17;;;0.46;89.57
42003;BME280;27693;50.506;30.832;2022-12-13T05:34:50;98978.00;;;0.57;89.75
42003;BME280;27693;50.506;30.832;2022-12-13T05:35:54;98963.31;;;0.68;89.96
42003;BME280;27693;50.506;30.832;2022-12-13T05:36:59;98968.48;;;0.65;89.71
42003;BME280;27693;50.506;30.832;2022-12-13T05:38:01;98967.11;;;0.45;89.21
42003;BME280;27693;50.506;30.832;2022-12-13T05:39:03;98971.64;;;0.28;89.02
42003;BME280;27693;50.506;30.832;2022-12-13T05:40:07;98969.88;;;0.31;89.61
42003;BME280;27693;50.506;30.832;2022-12-13T05:41:14;98963.36;;;0.13;89.92
42003;BME280;27693;50.506;30.832;2022-12-13T05:42:18;98967.01;;;-0.03;89.80
42003;BME280;27693;50.506;30.832;2022-12-13T05:43:23;98967.96;;;-0.10;90.66
42003;BME280;27693;50.506;30.832;2022-12-13T05:44:27;98970.58;;;-0.15;90.61
42003;BME280;27693;50.506;30.832;2022-12-13T05:45:30;98975.06;;;-0.31;90.33
42003;BME280;27693;50.506;30.832;2022-12-13T05:46:33;98976.77;;;-0.30;90.58
42003;BME280;27693;50.506;30.832;2022-12-13T05:47:38;98978.65;;;-0.44;90.57
42003;BME280;27693;50.506;30.832;2022-12-13T05:48:41;98978.70;;;-0.49;91.04
42003;BME280;27693;50.506;30.832;2022-12-13T05:49:43;98978.73;;;-0.51;91.34
42003;BME280;27693;50.506;30.832;2022-12-13T05:50:45;98987.26;;;-0.52;91.54
42003;BME280;27693;50.506;30.832;2022-12-13T05:51:48;98978.67;;;-0.47;92.03
42003;BME280;27693;50.506;30.832;2022-12-13T05:52:50;98982.13;;;-0.49;91.93
42003;BME280;27693;50.506;30.832;2022-12-13T05:53:53;98977.12;;;-0.58;91.96
42003;BME280;27693;50.506;30.832;2022-12-13T05:54:55;98972.81;;;-0.54;92.37
42003;BME280;27693;50.506;30.832;2022-12-13T05:56:00;98972.11;;;-0.67;92.13
42003;BME280;27693;50.506;30.832;2022-12-13T05:57:03;98960.25;;;-0.71;92.43
42003;BME280;27693;50.506;30.832;2022-12-13T05:58:05;98962.67;;;-0.60;92.79
42003;BME280;27693;50.506;30.832;2022-12-13T05:59:10;98965.98;;;-0.54;93.23
42003;BME280;27693;50.506;30.832;2022-12-13T06:00:14;98957.31;;;-0.42;93.58
42003;BME280;27693;50.506;30.832;2022-12-13T06:01:18;98963.06;;;-0.26;93.76
42003;BME280;27693;50.506;30.832;2022-12-13T06:02:20;98959.70;;;-0.28;93.13
42003;BME280;27693;50.506;30.832;2022-12-13T06:03:23;98961.34;;;-0.24;93.36
42003;BME280;27693;50.506;30.832;2022-12-13T06:04:25;98957.02;;;-0.20;93.38
42003;BME280;27693;50.506;30.832;2022-12-13T06:05:30;98954.41;;;-0.15;93.53
42003;BME280;27693;50.506;30.832;2022-12-13T06:06:32;98959.40;;;-0.08;93.78
42003;BME280;27693;50.506;30.832;2022-12-13T06:07:34;98962.56;;;0.10;93.95
42003;BME280;27693;50.506;30.832;2022-12-13T06:08:37;98967.42;;;0.27;93.86
42003;BME280;27693;50.506;30.832;2022-12-13T06:09:41;98969.81;;;0.36;93.27
42003;BME280;27693;50.506;30.832;2022-12-13T06:10:43;98970.77;;;0.29;92.02
42003;BME280;27693;50.506;30.832;2022-12-13T06:11:46;98971.91;;;0.12;91.18
42003;BME280;27693;50.506;30.832;2022-12-13T06:12:48;98972.77;;;0.11;91.00
42003;BME280;27693;50.506;30.832;2022-12-13T06:13:51;98975.19;;;0.19;91.38
42003;BME280;27693;50.506;30.832;2022-12-13T06:14:52;98976.19;;;0.10;90.99
42003;BME280;27693;50.506;30.832;2022-12-13T06:16:02;98980.34;;;0.18;91.41
42003;BME280;27693;50.506;30.832;2022-12-13T06:17:04;98976.09;;;0.17;91.44
42003;BME280;27693;50.506;30.832;2022-12-13T06:18:06;98973.56;;;0.15;91.55
42003;BME280;27693;50.506;30.832;2022-12-13T06:19:08;98979.52;;;0.15;91.46
42003;BME280;27693;50.506;30.832;2022-12-13T06:20:11;98974.45;;;0.12;91.42
42003;BME280;27693;50.506;30.832;2022-12-13T06:21:15;98977.78;;;0.18;92.02
42003;BME280;27693;50.506;30.832;2022-12-13T06:22:17;98971.87;;;0.14;91.85
42003;BME280;27693;50.506;30.832;2022-12-13T06:23:19;98971.87;;;0.14;91.85
42003;BME280;27693;50.506;30.832;2022-12-13T06:24:22;98969.34;;;0.12;92.41
42003;BME280;27693;50.506;30.832;2022-12-13T06:25:24;98970.20;;;0.11;92.37
42003;BME280;27693;50.506;30.832;2022-12-13T06:26:28;98967.58;;;0.14;92.39
42003;BME280;27693;50.506;30.832;2022-12-13T06:27:30;98972.60;;;0.21;92.55
42003;BME280;27693;50.506;30.832;2022-12-13T06:28:32;98970.81;;;0.27;92.45
42003;BME280;27693;50.506;30.832;2022-12-13T06:29:34;98977.65;;;0.27;92.03
42003;BME280;27693;50.506;30.832;2022-12-13T06:30:36;98977.45;;;0.39;92.34
42003;BME280;27693;50.506;30.832;2022-12-13T10:45:21;98984.23;;;-0.14;98.04
42003;BME280;27693;50.506;30.832;2022-12-13T10:46:25;98986.98;;;-0.30;98.14
42003;BME280;27693;50.506;30.832;2022-12-13T10:47:28;98976.67;;;-0.24;98.36
42003;BME280;27693;50.506;30.832;2022-12-13T10:48:36;98969.78;;;-0.19;97.96
42003;BME280;27693;50.506;30.832;2022-12-13T10:49:51;98969.78;;;-0.19;97.96
42003;BME280;27693;50.506;30.832;2022-12-13T10:51:12;98964.48;;;-0.06;98.26
42003;BME280;27693;50.506;30.832;2022-12-13T10:52:32;98962.47;;;0.14;98.91
42003;BME280;27693;50.506;30.832;2022-12-13T10:53:40;98955.75;;;0.07;98.00
42003;BME280;27693;50.506;30.832;2022-12-13T10:54:48;98955.82;;;0.04;97.24
42003;BME280;27693;50.506;30.832;2022-12-13T10:55:57;98956.84;;;-0.08;96.89
42003;BME280;27693;50.506;30.832;2022-12-13T10:57:09;98958.69;;;-0.18;96.44
42003;BME280;27693;50.506;30.832;2022-12-13T10:58:17;98953.61;;;-0.19;96.61
42003;BME280;27693;50.506;30.832;2022-12-13T10:59:24;98957.55;;;0.02;97.24
42003;BME280;27693;50.506;30.832;2022-12-13T11:00:42;98960.64;;;0.23;97.46
42003;BME280;27693;50.506;30.832;2022-12-13T11:01:37;98958.91;;;0.25;96.45
42003;BME280;27693;50.506;30.832;2022-12-13T11:02:47;98949.64;;;0.18;95.27
42003;BME280;27693;50.506;30.832;2022-12-13T11:04:18;98952.69;;;0.40;95.27
42003;BME280;27693;50.506;30.832;2022-12-13T11:05:27;98956.80;;;0.48;94.52
42003;BME280;27693;50.506;30.832;2022-12-13T11:06:42;98954.45;;;0.38;93.24
42003;BME280;27693;50.506;30.832;2022-12-13T11:07:45;98957.77;;;0.41;92.11
42003;BME280;27693;50.506;30.832;2022-12-13T11:08:48;98956.66;;;0.58;93.33
42003;BME280;27693;50.506;30.832;2022-12-13T11:09:51;98960.41;;;0.38;91.56
42003;BME280;27693;50.506;30.832;2022-12-13T11:11:03;98968.73;;;0.50;91.65
42003;BME280;27693;50.506;30.832;2022-12-13T11:12:22;98959.18;;;0.59;91.97
42003;BME280;27693;50.506;30.832;2022-12-13T11:14:52;98958.81;;;0.31;90.23
42003;BME280;27693;50.506;30.832;2022-12-13T11:15:53;98961.44;;;0.26;90.22
42003;BME280;27693;50.506;30.832;2022-12-13T11:17:03;98956.75;;;-0.02;90.22
42003;BME280;27693;50.506;30.832;2022-12-13T11:18:06;98959.46;;;-0.12;91.12
42003;BME280;27693;50.506;30.832;2022-12-13T11:19:18;98949.97;;;-0.04;90.86
42003;BME280;27693;50.506;30.832;2022-12-13T11:20:23;98948.49;;;-0.19;91.83
42003;BME280;27693;50.506;30.832;2022-12-13T11:21:28;98953.42;;;-0.07;92.14
42003;BME280;27693;50.506;30.832;2022-12-13T11:22:37;98957.42;;;0.11;92.24
42003;BME280;27693;50.506;30.832;2022-12-13T11:23:42;98951.44;;;0.11;91.24
42003;BME280;27693;50.506;30.832;2022-12-13T11:24:48;98955.82;;;0.04;90.82
42003;BME280;27693;50.506;30.832;2022-12-13T11:25:57;98957.05;;;-0.23;90.48
42003;BME280;27693;50.506;30.832;2022-12-13T11:27:13;98948.44;;;-0.14;91.03
42003;BME280;27693;50.506;30.832;2022-12-13T11:28:36;98949.94;;;-0.01;90.92
42003;BME280;27693;50.506;30.832;2022-12-13T11:29:42;98952.50;;;-0.03;90.83
42003;BME280;27693;50.506;30.832;2022-12-13T11:35:10;98946.15;;;-0.35;91.60
42003;BME280;27693;50.506;30.832;2022-12-13T11:37:44;98960.77;;;-0.44;91.90
42003;BME280;27693;50.506;30.832;2022-12-13T11:40:13;98953.20;;;-0.54;90.77
42003;BME280;27693;50.506;30.832;2022-12-13T11:41:34;98955.03;;;-0.62;91.75
42003;BME280;27693;50.506;30.832;2022-12-13T11:42:47;98953.26;;;-0.58;91.74
42003;BME280;27693;50.506;30.832;2022-12-13T11:44:00;98958.18;;;-0.41;92.09
42003;BME280;27693;50.506;30.832;2022-12-13T11:45:29;98951.31;;;-0.39;91.38
42003;BME280;27693;50.506;30.832;2022-12-13T11:46:50;98958.98;;;-0.39;91.23
42003;BME280;27693;50.506;30.832;2022-12-13T11:49:27;98957.92;;;-0.23;92.29
42003;BME280;27693;50.506;30.832;2022-12-13T11:50:36;98950.28;;;-0.24;91.10
42003;BME280;27693;50.506;30.832;2022-12-13T11:51:52;98956.20;;;-0.21;90.97
42003;BME280;27693;50.506;30.832;2022-12-13T11:52:59;98947.90;;;-0.38;91.14
42003;BME280;27693;50.506;30.832;2022-12-13T11:54:06;98948.61;;;-0.28;91.03
42003;BME280;27693;50.506;30.832;2022-12-13T11:55:14;98955.59;;;-0.40;92.05
42003;BME280;27693;50.506;30.832;2022-12-13T11:57:42;98972.54;;;-0.33;92.79
42003;BME280;27693;50.506;30.832;2022-12-13T11:58:49;98963.03;;;-0.23;93.40
42003;BME280;27693;50.506;30.832;2022-12-13T12:00:05;98968.34;;;-0.38;92.12
42003;BME280;27693;50.506;30.832;2022-12-13T12:01:22;98964.15;;;-0.44;91.99
42003;BME280;27693;50.506;30.832;2022-12-13T12:03:42;98959.26;;;-0.61;91.51
42003;BME280;27693;50.506;30.832;2022-12-13T12:04:54;98963.51;;;-0.60;91.22
42003;BME280;27693;50.506;30.832;2022-12-13T12:06:11;98956.91;;;-0.76;91.68
42003;BME280;27693;50.506;30.832;2022-12-13T12:07:31;98949.84;;;-0.56;92.28
42003;BME280;27693;50.506;30.832;2022-12-13T12:09:52;98955.92;;;-0.66;90.97
42003;BME280;27693;50.506;30.832;2022-12-13T12:11:00;98959.34;;;-0.67;90.20
42003;BME280;27693;50.506;30.832;2022-12-13T12:12:08;98963.69;;;-0.75;89.93
42003;BME280;27693;50.506;30.832;2022-12-13T12:13:18;98961.27;;;-0.85;89.97
42003;BME280;27693;50.506;30.832;2022-12-13T12:15:33;98968.92;;;-0.85;91.11
42003;BME280;27693;50.506;30.832;2022-12-13T12:17:51;98963.56;;;-0.65;90.84
42003;BME280;27693;50.506;30.832;2022-12-13T12:18:55;98967.05;;;-0.70;90.83
42003;BME280;27693;50.506;30.832;2022-12-13T12:20:00;98969.61;;;-0.70;90.72
42003;BME280;27693;50.506;30.832;2022-12-13T12:21:16;98968.80;;;-0.75;90.51
42003;BME280;27693;50.506;30.832;2022-12-13T12:26:44;98962.28;;;-1.01;92.03
42003;BME280;27693;50.506;30.832;2022-12-13T12:30:18;98977.52;;;-0.92;92.14
42003;BME280;27693;50.506;30.832;2022-12-13T12:31:34;98965.77;;;-1.08;92.31
42003;BME280;27693;50.506;30.832;2022-12-13T12:32:51;98969.28;;;-1.19;92.33
42003;BME280;27693;50.506;30.832;2022-12-13T12:34:20;98965.83;;;-1.15;93.22
42003;BME280;27693;50.506;30.832;2022-12-13T12:39:43;98968.58;;;-1.33;91.23
42003;BME280;27693;50.506;30.832;2022-12-13T12:48:15;98973.43;;;-1.07;90.81
42003;BME280;27693;50.506;30.832;2022-12-13T12:50:52;98969.36;;;-1.28;90.96
42003;BME280;27693;50.506;30.832;2022-12-13T13:04:16;98962.63;;;-1.35;92.73
42003;BME280;27693;50.506;30.832;2022-12-13T13:06:42;98957.63;;;-1.45;92.62
42003;BME280;27693;50.506;30.832;2022-12-13T13:07:48;98972.92;;;-1.43;92.64
42003;BME280;27693;50.506;30.832;2022-12-13T13:08:56;98956.97;;;-1.65;92.75
42003;BME280;27693;50.506;30.832;2022-12-13T13:10:00;98965.50;;;-1.71;93.03
42003;BME280;27693;50.506;30.832;2022-12-13T13:11:06;98952.84;;;-1.85;93.13
42003;BME280;27693;50.506;30.832;2022-12-13T13:12:12;98958.73;;;-1.73;93.52
42003;BME280;27693;50.506;30.832;2022-12-13T13:14:47;98962.15;;;-1.76;93.14
42003;BME280;27693;50.506;30.832;2022-12-13T13:15:53;98957.80;;;-1.68;93.11
42003;BME280;27693;50.506;30.832;2022-12-13T13:16:58;98960.31;;;-1.60;93.38
42003;BME280;27693;50.506;30.832;2022-12-13T13:18:02;98960.40;;;-1.71;92.60
42003;BME280;27693;50.506;30.832;2022-12-13T13:20:26;98949.40;;;-1.76;92.45
42003;BME280;27693;50.506;30.832;2022-12-13T13:21:37;98949.39;;;-1.78;92.72
42003;BME280;27693;50.506;30.832;2022-12-13T13:22:38;98955.38;;;-1.79;92.48
42003;BME280;27693;50.506;30.832;2022-12-13T13:23:42;98966.33;;;-1.70;92.42
42003;BME280;27693;50.506;30.832;2022-12-13T13:24:45;98965.48;;;-1.69;92.34
42003;BME280;27693;50.506;30.832;2022-12-13T13:25:52;98957.05;;;-1.76;91.95
42003;BME280;27693;50.506;30.832;2022-12-13T13:28:16;98961.94;;;-1.54;91.79
42003;BME280;27693;50.506;30.832;2022-12-13T13:30:30;98972.29;;;-1.71;91.35
42003;BME280;27693;50.506;30.832;2022-12-13T13:31:57;98964.83;;;-1.93;91.50
42003;BME280;27693;50.506;30.832;2022-12-13T13:33:02;98952.94;;;-1.97;91.77
42003;BME280;27693;50.506;30.832;2022-12-13T13:34:25;98957.11;;;-1.85;91.96
42003;BME280;27693;50.506;30.832;2022-12-13T13:35:44;98954.45;;;-1.73;92.12
42003;BME280;27693;50.506;30.832;2022-12-13T13:36:44;98957.87;;;-1.75;91.94